Macedonia, Mississippi
Current Conditions -  °F | °C
As of 1:53 PM on Sunday 25 Jan 2015 (Local Time) from KHBG Reporting Station
Clear Clear  
Wind Chill: 66°   Ceiling: Unl
Heat Index: 66°   Visibility: 10mi
Dew Point: 39°   Wind: 14mph
Humidity: 37%   Direction: 210°SSW
Pressure: 29.84"   Gusts: 25mph
Location:  31.1996°N, 89.2694°W
Report Text: KHBG 251953Z AUTO 21012G22KT 10SM CLR 19/04 A2984 RMK AO2 SLP103 T01890039
Loading
Personal Weather Stations






























Interactive Weather Map New forecast layout! Learn more

10-Day Weather Forecast

Advertisements
Track Severe Weather on mobile